| time (UTC) | temp F | wind direction | speed MPH | gust MPH | rain 1hr in | rain 24hr in | rain mn in | humidity % | barometer mb |
| 20260507134603 | 53 | 238 | 6.0 | 11.0 | 0.00 | 0.00 | 0.00 | 46 | 1011.1 |
| 20260507134104 | 53 | 248 | 5.0 | 10.0 | 0.00 | 0.00 | 0.00 | 47 | 1011.2 |
| 20260507133602 | 53 | 246 | 6.0 | 11.0 | 0.00 | 0.00 | 0.00 | 47 | 1011.2 |
| 20260507133103 | 52 | 239 | 7.0 | 12.0 | 0.00 | 0.00 | 0.00 | 49 | 1011.1 |
| 20260507124103 | 48 | 248 | 9.0 | 14.0 | 0.00 | 0.00 | 0.00 | 53 | 1011.3 |
| 20260507123602 | 49 | 250 | 9.0 | 14.0 | 0.00 | 0.00 | 0.00 | 53 | 1011.2 |
| 20260507122103 | 48 | 245 | 10.0 | 18.0 | 0.00 | 0.00 | 0.00 | 53 | 1011.2 |
| 20260507121603 | 48 | 243 | 11.0 | 18.0 | 0.00 | 0.00 | 0.00 | 54 | 1011.1 |
| 20260507103103 | 47 | 230 | 6.0 | 10.0 | 0.00 | 0.00 | 0.00 | 55 | 1011.2 |
| 20260507095602 | 46 | 226 | 6.0 | 10.0 | 0.00 | 0.00 | 0.00 | 54 | 1011.4 |
| 20260507091603 | 46 | 226 | 5.0 | 9.0 | 0.00 | 0.00 | 0.00 | 52 | 1011.6 |
| 20260507085103 | 46 | 222 | 6.0 | 10.0 | 0.00 | 0.00 | 0.00 | 49 | 1011.9 |
| 20260507083602 | 46 | 217 | 5.0 | 10.0 | 0.00 | 0.00 | 0.00 | 46 | 1012.1 |
| 20260507083103 | 46 | 215 | 5.0 | 10.0 | 0.00 | 0.00 | 0.00 | 46 | 1012.2 |
| 20260507080103 | 46 | 233 | 5.0 | 7.0 | 0.00 | 0.00 | 0.00 | 42 | 1012.5 |
| 20260507074603 | 47 | 235 | 5.0 | 7.0 | 0.00 | 0.00 | 0.00 | 40 | 1012.8 |
| 20260507074104 | 47 | 231 | 5.0 | 6.0 | 0.00 | 0.00 | 0.00 | 40 | 1012.7 |
| 20260507073602 | 47 | 225 | 5.0 | 8.0 | 0.00 | 0.00 | 0.00 | 39 | 1012.7 |
| 20260507073103 | 48 | 219 | 6.0 | 8.0 | 0.00 | 0.00 | 0.00 | 38 | 1012.8 |
| 20260507072602 | 48 | 218 | 5.0 | 8.0 | 0.00 | 0.00 | 0.00 | 37 | 1012.9 |
| 20260507070104 | 48 | 215 | 5.0 | 7.0 | 0.00 | 0.00 | 0.00 | 34 | 1013.1 |
| 20260507065103 | 48 | 210 | 5.0 | 8.0 | 0.00 | 0.00 | 0.00 | 32 | 1013.2 |
| 20260507063103 | 48 | 176 | 6.0 | 8.0 | 0.00 | 0.00 | 0.00 | 30 | 1013.3 |
| 20260507062103 | 48 | 175 | 6.0 | 8.0 | 0.00 | 0.00 | 0.00 | 30 | 1013.4 |
| 20260507061603 | 48 | 179 | 5.0 | 7.0 | 0.00 | 0.00 | 0.00 | 29 | 1013.5 |
| 20260507061103 | 47 | 172 | 3.0 | 7.0 | 0.00 | 0.00 | 0.00 | 30 | 1013.6 |
| 20260507060103 | 48 | 178 | 6.0 | 8.0 | 0.00 | 0.00 | 0.00 | 29 | 1013.7 |
| 20260507052603 | 47 | 162 | 2.0 | 3.0 | 0.00 | 0.00 | 0.00 | 30 | 1013.9 |
| 20260507050602 | 47 | 150 | 1.0 | 3.0 | 0.00 | 0.00 | 0.00 | 29 | 1014.0 |
| 20260507043602 | 48 | 183 | 2.0 | 3.0 | 0.00 | 0.00 | 0.00 | 27 | 1014.2 |
| 20260507040603 | 49 | 0 | 0.0 | 0.0 | 0.00 | 0.00 | 0.00 | 25 | 1014.3 |
| 20260507033103 | 50 | 194 | 1.0 | 2.0 | 0.00 | 0.00 | 0.00 | 24 | 1014.6 |
| 20260507031103 | 50 | 209 | 1.0 | 2.0 | 0.00 | 0.00 | 0.00 | 23 | 1014.7 |
| 20260507025602 | 50 | 0 | 0.0 | 0.0 | 0.00 | 0.00 | 0.00 | 22 | 1014.7 |
| 20260507024603 | 50 | 0 | 0.0 | 0.0 | 0.00 | 0.00 | 0.00 | 23 | 1014.7 |
| 20260507021603 | 51 | 0 | 0.0 | 0.0 | 0.00 | 0.00 | 0.00 | 20 | 1014.6 |
| 20260507015603 | 54 | 0 | 0.0 | 0.0 | 0.00 | 0.00 | 0.00 | 18 | 1014.5 |
| 20260507014602 | 54 | 0 | 0.0 | 0.0 | 0.00 | 0.00 | 0.00 | 17 | 1014.5 |
| 20260507013603 | 55 | 271 | 1.0 | 2.0 | 0.00 | 0.00 | 0.00 | 17 | 1014.4 |
| 20260507013103 | 55 | 276 | 1.0 | 2.0 | 0.00 | 0.00 | 0.00 | 17 | 1014.4 |
| 20260507000603 | 59 | 300 | 5.0 | 11.0 | 0.00 | 0.00 | 0.00 | 15 | 1014.7 |
| 20260506232603 | 59 | 303 | 10.0 | 17.0 | 0.00 | 0.00 | 0.00 | 14 | 1014.9 |
| 20260506230104 | 59 | 289 | 10.0 | 19.0 | 0.00 | 0.00 | 0.00 | 14 | 1015.1 |
| 20260506222603 | 59 | 308 | 8.0 | 14.0 | 0.00 | 0.00 | 0.00 | 14 | 1015.3 |
| 20260506221602 | 58 | 312 | 5.0 | 9.0 | 0.00 | 0.00 | 0.00 | 15 | 1015.4 |
| 20260506221103 | 58 | 300 | 8.0 | 14.0 | 0.00 | 0.00 | 0.00 | 15 | 1015.5 |
| 20260506220602 | 58 | 282 | 10.0 | 17.0 | 0.00 | 0.00 | 0.00 | 14 | 1015.5 |
| 20260506220104 | 58 | 269 | 12.0 | 20.0 | 0.00 | 0.00 | 0.00 | 14 | 1015.5 |
| 20260506214103 | 58 | 281 | 11.0 | 22.0 | 0.00 | 0.00 | 0.00 | 15 | 1015.5 |
| 20260506210103 | 57 | 301 | 8.0 | 14.0 | 0.00 | 0.00 | 0.00 | 16 | 1016.1 |
| 20260506205602 | 56 | 302 | 8.0 | 16.0 | 0.00 | 0.00 | 0.00 | 18 | 1016.2 |
| 20260506203103 | 56 | 313 | 11.0 | 20.0 | 0.00 | 0.00 | 0.00 | 16 | 1016.4 |
| 20260506195103 | 55 | 297 | 11.0 | 18.0 | 0.00 | 0.00 | 0.00 | 18 | 1016.6 |
| 20260506194603 | 55 | 299 | 10.0 | 17.0 | 0.00 | 0.00 | 0.00 | 18 | 1016.8 |
| 20260506192104 | 55 | 304 | 11.0 | 20.0 | 0.00 | 0.00 | 0.00 | 20 | 1016.8 |
| 20260506190104 | 55 | 298 | 7.0 | 14.0 | 0.00 | 0.00 | 0.00 | 20 | 1016.9 |
| 20260506184603 | 54 | 304 | 8.0 | 16.0 | 0.00 | 0.00 | 0.00 | 21 | 1017.2 |
| 20260506182603 | 54 | 308 | 9.0 | 16.0 | 0.00 | 0.00 | 0.00 | 22 | 1017.2 |
| 20260506171603 | 53 | 308 | 8.0 | 16.0 | 0.00 | 0.00 | 0.00 | 25 | 1018.0 |
| 20260506153103 | 50 | 301 | 7.0 | 12.0 | 0.00 | 0.00 | 0.00 | 29 | 1018.1 |
| 20260506151103 | 50 | 321 | 6.0 | 12.0 | 0.00 | 0.00 | 0.00 | 28 | 1018.2 |
| 20260506150603 | 50 | 322 | 7.0 | 11.0 | 0.00 | 0.00 | 0.00 | 32 | 1018.2 |
| 20260506145103 | 49 | 313 | 8.0 | 14.0 | 0.00 | 0.00 | 0.00 | 31 | 1018.2 |
| 20260506144103 | 48 | 298 | 7.0 | 11.0 | 0.00 | 0.00 | 0.00 | 33 | 1018.3 |
| 20260506143103 | 48 | 308 | 7.0 | 12.0 | 0.00 | 0.00 | 0.00 | 30 | 1018.1 |
| 20260506142103 | 48 | 307 | 6.0 | 12.0 | 0.00 | 0.00 | 0.00 | 31 | 1018.1 |
| 20260506140104 | 47 | 314 | 5.0 | 9.0 | 0.00 | 0.00 | 0.00 | 34 | 1017.8 |
| 20260506135603 | 46 | 303 | 4.0 | 8.0 | 0.00 | 0.00 | 0.00 | 36 | 1017.8 |